createdAt,value
2018-04-12T00:01:28.159Z,17
2018-04-12T00:11:27.426Z,17
2018-04-12T00:21:27.481Z,17
2018-04-12T00:31:27.749Z,16
2018-04-12T00:41:28.871Z,16
2018-04-12T00:51:28.091Z,16
2018-04-12T01:01:28.631Z,16
2018-04-12T01:11:28.968Z,16
2018-04-12T01:21:27.730Z,16
2018-04-12T01:31:30.414Z,17
2018-04-12T01:41:27.848Z,16
2018-04-12T01:51:27.724Z,16
2018-04-12T02:01:29.127Z,16
2018-04-12T02:11:28.588Z,16
2018-04-12T02:21:28.957Z,16
2018-04-12T02:31:27.908Z,16
2018-04-12T02:41:28.382Z,16
2018-04-12T02:51:27.490Z,16
2018-04-12T03:01:27.151Z,16
2018-04-12T03:11:28.415Z,16
2018-04-12T03:21:28.345Z,15
2018-04-12T03:31:28.656Z,15
2018-04-12T03:41:28.113Z,15
2018-04-12T03:51:29.541Z,15
2018-04-12T04:01:27.939Z,16
2018-04-12T04:11:27.659Z,16
2018-04-12T04:21:27.405Z,16
2018-04-12T04:31:27.877Z,15
2018-04-12T04:44:12.871Z,15
2018-04-12T04:51:31.233Z,16
2018-04-12T05:01:28.100Z,16
2018-04-12T05:11:27.686Z,16
2018-04-12T05:21:27.441Z,16
2018-04-12T05:31:28.498Z,16
2018-04-12T05:41:27.159Z,16
2018-04-12T05:51:30.423Z,16
2018-04-12T06:01:27.505Z,16
2018-04-12T06:11:27.760Z,16
2018-04-12T06:21:28.191Z,16
2018-04-12T06:31:27.930Z,16
2018-04-12T06:41:29.445Z,16
2018-04-12T06:51:29.022Z,17
2018-04-12T07:01:27.715Z,16
2018-04-12T07:11:29.109Z,17
2018-04-12T07:21:27.208Z,17
2018-04-12T07:31:31.994Z,17
2018-04-12T07:41:27.829Z,18
2018-04-12T07:51:28.461Z,18
2018-04-12T08:01:27.446Z,18
2018-04-12T08:11:27.627Z,18
2018-04-12T08:21:29.243Z,18
2018-04-12T08:31:35.176Z,18
2018-04-12T08:41:29.889Z,19
2018-04-12T08:51:30.120Z,19
2018-04-12T09:01:30.097Z,20
2018-04-12T09:11:27.800Z,19
2018-04-12T09:21:28.010Z,20
2018-04-12T09:31:28.327Z,20
2018-04-12T09:41:26.329Z,20
2018-04-12T09:51:26.043Z,20
2018-04-12T10:01:27.101Z,21
2018-04-12T10:11:26.903Z,21
2018-04-12T10:21:28.599Z,21
2018-04-12T10:31:27.803Z,21
2018-04-12T10:41:26.821Z,22
2018-04-12T10:51:28.414Z,22
2018-04-12T11:01:32.184Z,22
2018-04-12T11:11:28.280Z,22
2018-04-12T11:21:26.993Z,23
2018-04-12T11:31:27.398Z,23
2018-04-12T11:41:26.678Z,23
2018-04-12T11:51:27.044Z,24
2018-04-12T12:01:28.545Z,24
2018-04-12T12:11:27.002Z,24
2018-04-12T12:21:27.149Z,24
2018-04-12T12:31:28.990Z,24
2018-04-12T12:41:27.718Z,25
2018-04-12T12:51:26.818Z,25
2018-04-12T13:01:28.170Z,25
2018-04-12T13:11:28.752Z,25
2018-04-12T13:21:29.399Z,25
2018-04-12T13:31:26.202Z,26
2018-04-12T13:41:28.393Z,25
2018-04-12T13:51:26.193Z,25
2018-04-12T14:01:27.035Z,25
2018-04-12T14:11:27.151Z,25
2018-04-12T14:21:27.981Z,25
2018-04-12T14:31:32.349Z,26
2018-04-12T14:41:26.474Z,25
2018-04-12T14:51:26.810Z,25
2018-04-12T15:01:28.541Z,25
2018-04-12T15:11:26.268Z,25
2018-04-12T15:21:28.021Z,26
2018-04-12T15:31:26.855Z,25
2018-04-12T15:41:32.690Z,27
2018-04-12T15:51:26.528Z,26
2018-04-12T16:01:28.026Z,26
2018-04-12T16:11:27.204Z,26
2018-04-12T16:21:26.282Z,26
2018-04-12T16:31:28.595Z,25
2018-04-12T16:41:27.426Z,25
2018-04-12T16:51:26.304Z,25
2018-04-12T17:01:26.215Z,25
2018-04-12T17:11:28.565Z,25
2018-04-12T17:21:31.995Z,24
2018-04-12T17:31:28.320Z,24
2018-04-12T17:41:27.837Z,24
2018-04-12T17:51:26.678Z,23
2018-04-12T18:01:28.249Z,23
2018-04-12T18:11:30.422Z,23
2018-04-12T18:21:27.253Z,23
2018-04-12T18:31:33.958Z,22
2018-04-12T18:41:32.576Z,22
2018-04-12T18:51:26.962Z,22
2018-04-12T19:01:28.569Z,22
2018-04-12T19:11:27.842Z,22
2018-04-12T19:21:29.093Z,22
2018-04-12T19:31:26.999Z,22
2018-04-12T19:41:27.287Z,22
2018-04-12T20:02:49.948Z,22
2018-04-12T20:41:27.259Z,21
2018-04-12T20:51:33.118Z,21
2018-04-12T21:01:55.481Z,21
2018-04-12T21:11:27.446Z,21
2018-04-12T21:21:27.959Z,20
2018-04-12T21:31:27.752Z,20
2018-04-12T21:41:27.646Z,20
2018-04-12T21:51:27.225Z,20
2018-04-12T22:01:27.931Z,20
2018-04-12T22:11:27.281Z,20
2018-04-12T22:21:27.206Z,20
2018-04-12T22:31:28.441Z,20
2018-04-12T22:41:29.915Z,20
2018-04-12T22:51:26.106Z,20
2018-04-12T23:01:29.069Z,20
2018-04-12T23:11:26.828Z,20
2018-04-12T23:21:28.209Z,20
2018-04-12T23:31:27.582Z,20
2018-04-12T23:41:30.704Z,19
2018-04-12T23:51:26.672Z,19
